createdAt,value
2023-03-05T00:01:13.524Z,9.40
2023-03-05T00:03:40.380Z,9.20
2023-03-05T00:06:08.231Z,9.10
2023-03-05T00:08:36.884Z,9.30
2023-03-05T00:11:07.066Z,9.30
2023-03-05T00:13:34.687Z,9.40
2023-03-05T00:16:06.130Z,9.40
2023-03-05T00:18:33.376Z,9.50
2023-03-05T00:21:01.337Z,9.60
2023-03-05T00:23:28.301Z,9.70
2023-03-05T00:25:55.029Z,9.70
2023-03-05T00:28:22.011Z,9.60
2023-03-05T00:30:48.696Z,9.60
2023-03-05T00:33:15.425Z,9.30
2023-03-05T00:35:44.845Z,9.30
2023-03-05T00:38:12.710Z,9.40
2023-03-05T00:40:41.268Z,9.30
2023-03-05T00:43:08.478Z,9.20
2023-03-05T00:45:35.251Z,9.20
2023-03-05T00:48:01.927Z,9.20
2023-03-05T00:50:28.753Z,9.00
2023-03-05T00:52:55.521Z,9.20
2023-03-05T00:55:22.305Z,9.30
2023-03-05T00:57:49.138Z,9.30
2023-03-05T01:00:17.282Z,9.30
2023-03-05T01:02:44.009Z,9.30
2023-03-05T01:05:13.280Z,9.30
2023-03-05T01:07:40.252Z,9.20
2023-03-05T01:10:08.763Z,9.30
2023-03-05T01:12:35.534Z,9.20
2023-03-05T01:15:03.036Z,9.30
2023-03-05T01:17:29.768Z,9.30
2023-03-05T01:19:56.667Z,9.30
2023-03-05T01:22:23.467Z,9.40
2023-03-05T01:24:50.140Z,9.40
2023-03-05T01:27:16.844Z,9.40
2023-03-05T01:29:43.550Z,9.30
2023-03-05T01:32:10.452Z,9.30
2023-03-05T01:34:37.903Z,9.30
2023-03-05T01:37:04.927Z,9.30
2023-03-05T01:39:31.721Z,9.40
2023-03-05T01:41:58.424Z,9.40
2023-03-05T01:44:30.154Z,9.40
2023-03-05T01:46:58.052Z,9.50
2023-03-05T01:49:32.481Z,9.40
2023-03-05T01:51:59.188Z,9.30
2023-03-05T01:54:31.533Z,9.20
2023-03-05T01:57:00.759Z,9.20
2023-03-05T01:59:28.262Z,9.10
2023-03-05T02:01:57.734Z,9.00
2023-03-05T02:04:34.616Z,9.00
2023-03-05T02:07:01.855Z,9.00
2023-03-05T02:09:29.503Z,9.00
2023-03-05T02:11:56.962Z,9.00
2023-03-05T02:14:24.583Z,9.00
2023-03-05T02:16:51.825Z,9.00
2023-03-05T02:19:18.639Z,9.00
2023-03-05T02:21:48.447Z,9.00
2023-03-05T02:24:19.136Z,9.20
2023-03-05T02:26:47.387Z,9.30
2023-03-05T02:29:18.960Z,9.30
2023-03-05T02:31:46.048Z,9.40
2023-03-05T02:34:13.079Z,9.20
2023-03-05T02:36:40.037Z,9.20
2023-03-05T02:39:09.566Z,9.30
2023-03-05T02:41:36.550Z,9.40
2023-03-05T02:44:03.277Z,9.60
2023-03-05T02:46:30.018Z,9.00
2023-03-05T02:48:56.733Z,9.10
2023-03-05T02:51:23.535Z,9.10
2023-03-05T02:53:50.530Z,9.30
2023-03-05T02:56:17.753Z,9.40
2023-03-05T02:58:44.593Z,9.20
2023-03-05T03:01:11.397Z,9.10
2023-03-05T03:03:38.310Z,9.00
2023-03-05T03:06:05.465Z,9.10
2023-03-05T03:08:32.226Z,9.20
2023-03-05T03:11:09.058Z,9.10
2023-03-05T03:13:35.793Z,9.30
2023-03-05T03:16:04.813Z,9.40
2023-03-05T03:18:31.663Z,9.40
2023-03-05T03:20:59.506Z,9.30
2023-03-05T03:23:26.555Z,9.10
2023-03-05T03:25:54.336Z,9.30
2023-03-05T03:28:21.377Z,9.20
2023-03-05T03:30:48.140Z,9.10
2023-03-05T03:33:14.858Z,9.00
2023-03-05T03:35:41.544Z,9.20
2023-03-05T03:38:08.209Z,9.20
2023-03-05T03:40:35.837Z,9.20
2023-03-05T03:43:02.815Z,9.20
2023-03-05T03:45:30.622Z,9.30
2023-03-05T03:47:57.233Z,9.30
2023-03-05T03:50:25.100Z,9.30
2023-03-05T03:52:52.358Z,8.60
2023-03-05T03:55:19.169Z,6.10
2023-03-05T03:57:47.919Z,5.20
2023-03-05T04:00:14.983Z,4.90
2023-03-05T04:02:41.760Z,4.80
2023-03-05T04:05:09.184Z,4.80
2023-03-05T04:07:35.982Z,4.80
2023-03-05T04:10:03.488Z,4.80
2023-03-05T04:12:30.196Z,4.80
2023-03-05T04:14:56.984Z,4.80
2023-03-05T04:17:24.768Z,4.70
2023-03-05T04:19:51.488Z,4.70
2023-03-05T04:22:18.575Z,4.50
2023-03-05T04:24:45.455Z,4.60
2023-03-05T04:27:13.319Z,4.50
2023-03-05T04:29:41.039Z,4.40
2023-03-05T04:32:08.064Z,4.50
2023-03-05T04:34:35.256Z,4.50
2023-03-05T04:37:01.989Z,4.40
2023-03-05T04:39:28.860Z,4.40
2023-03-05T04:41:55.576Z,4.30
2023-03-05T04:44:23.369Z,4.30
2023-03-05T04:46:50.352Z,4.30
2023-03-05T04:49:17.157Z,4.40
2023-03-05T04:51:43.876Z,4.40
2023-03-05T04:54:11.642Z,4.30
2023-03-05T04:56:38.326Z,4.30
2023-03-05T04:59:06.041Z,4.10
2023-03-05T05:01:35.184Z,4.20
2023-03-05T05:04:02.219Z,4.20
2023-03-05T05:06:29.054Z,4.10
2023-03-05T05:08:55.667Z,4.10
2023-03-05T05:11:22.383Z,4.20
2023-03-05T05:13:49.110Z,4.10
2023-03-05T05:16:16.257Z,4.20
2023-03-05T05:18:43.018Z,4.00
2023-03-05T05:21:12.925Z,4.00
2023-03-05T05:23:39.748Z,4.00
2023-03-05T05:26:08.400Z,4.00
2023-03-05T05:28:35.806Z,3.90
2023-03-05T05:31:07.776Z,4.00
2023-03-05T05:33:34.475Z,4.00
2023-03-05T05:36:03.999Z,4.00
2023-03-05T05:38:31.137Z,4.00
2023-03-05T05:41:13.736Z,3.80
2023-03-05T05:43:40.904Z,3.90
2023-03-05T05:46:11.867Z,3.80
2023-03-05T05:48:39.094Z,3.80
2023-03-05T05:51:12.238Z,3.80
2023-03-05T05:53:39.507Z,3.80
2023-03-05T05:56:08.259Z,3.70
2023-03-05T05:58:36.558Z,3.80
2023-03-05T06:01:11.268Z,3.70
2023-03-05T06:03:37.888Z,3.70
2023-03-05T06:06:09.408Z,3.80
2023-03-05T06:08:36.099Z,3.80
2023-03-05T06:11:02.840Z,3.70
2023-03-05T06:13:30.549Z,3.70
2023-03-05T06:16:02.957Z,3.70
2023-03-05T06:18:29.731Z,3.60
2023-03-05T06:21:02.758Z,3.70
2023-03-05T06:23:29.682Z,3.60
2023-03-05T06:26:00.106Z,3.60
2023-03-05T06:28:26.795Z,3.60
2023-03-05T06:31:11.504Z,3.60
2023-03-05T06:33:39.079Z,3.70
2023-03-05T06:36:08.348Z,3.70
2023-03-05T06:38:36.063Z,3.70
2023-03-05T06:41:11.682Z,3.80
2023-03-05T06:43:44.041Z,3.80
2023-03-05T06:46:24.885Z,3.80
2023-03-05T06:48:53.020Z,3.80
2023-03-05T06:51:22.998Z,3.70
2023-03-05T06:53:49.826Z,3.70
2023-03-05T06:56:16.997Z,3.60
2023-03-05T06:58:45.910Z,3.60
2023-03-05T07:01:13.958Z,3.60
2023-03-05T07:03:41.669Z,3.80
2023-03-05T07:06:12.400Z,3.90
2023-03-05T07:08:40.246Z,3.90
2023-03-05T07:11:15.072Z,4.00
2023-03-05T07:13:44.389Z,4.10
2023-03-05T07:16:15.589Z,4.20
2023-03-05T07:18:43.192Z,4.40
2023-03-05T07:21:14.771Z,4.80
2023-03-05T07:23:41.486Z,5.40
2023-03-05T07:26:08.243Z,5.20
2023-03-05T07:28:35.267Z,5.00
2023-03-05T07:31:13.608Z,5.10
2023-03-05T07:33:40.452Z,5.20
2023-03-05T07:36:11.449Z,5.00
2023-03-05T07:38:38.309Z,5.20
2023-03-05T07:41:08.454Z,5.00
2023-03-05T07:43:36.787Z,5.00
2023-03-05T07:46:08.262Z,5.00
2023-03-05T07:48:36.229Z,5.70
2023-03-05T07:51:14.758Z,5.80
2023-03-05T07:53:45.334Z,5.90
2023-03-05T07:56:11.989Z,5.90
2023-03-05T07:58:39.973Z,6.40
2023-03-05T08:01:15.088Z,6.30
2023-03-05T08:03:43.132Z,5.70
2023-03-05T08:06:11.455Z,5.30
2023-03-05T08:08:38.522Z,4.90
2023-03-05T08:11:06.695Z,4.60
2023-03-05T08:13:33.518Z,4.70
2023-03-05T08:16:04.893Z,4.70
2023-03-05T08:18:31.642Z,4.70
2023-03-05T08:20:58.467Z,4.90
2023-03-05T08:23:25.650Z,4.80
2023-03-05T08:25:52.405Z,4.80
2023-03-05T08:28:19.796Z,5.00
2023-03-05T08:30:47.500Z,5.30
2023-03-05T08:33:14.660Z,5.50
2023-03-05T08:35:41.561Z,5.50
2023-03-05T08:38:08.241Z,5.70
2023-03-05T08:40:35.271Z,5.50
2023-03-05T08:43:02.094Z,5.60
2023-03-05T08:45:28.922Z,5.70
2023-03-05T08:47:57.239Z,5.80
2023-03-05T08:50:24.460Z,6.20
2023-03-05T08:52:51.230Z,5.70
2023-03-05T08:55:18.102Z,5.50
2023-03-05T08:57:44.759Z,5.40
2023-03-05T09:00:12.730Z,5.60
2023-03-05T09:02:40.139Z,5.80
2023-03-05T09:05:07.448Z,5.80
2023-03-05T09:07:34.182Z,6.40
2023-03-05T09:10:01.005Z,6.30
2023-03-05T09:12:27.865Z,6.40
2023-03-05T09:14:55.783Z,7.00
2023-03-05T09:17:23.622Z,6.70
2023-03-05T09:19:50.726Z,6.70
2023-03-05T09:22:17.552Z,6.30
2023-03-05T09:24:44.345Z,6.30
2023-03-05T09:27:11.137Z,6.80
2023-03-05T09:29:38.004Z,7.00
2023-03-05T09:32:05.073Z,7.60
2023-03-05T09:34:32.129Z,7.70
2023-03-05T09:36:58.937Z,7.80
2023-03-05T09:39:25.767Z,7.80
2023-03-05T09:42:27.060Z,7.60
2023-03-05T09:44:53.767Z,7.30
2023-03-05T09:47:46.124Z,7.00
2023-03-05T09:50:42.134Z,7.80
2023-03-05T09:53:24.035Z,7.90
2023-03-05T09:55:53.556Z,7.40
2023-03-05T09:58:39.625Z,7.10
2023-03-05T10:01:11.747Z,7.40
2023-03-05T10:04:14.028Z,7.60
2023-03-05T10:06:50.125Z,7.70
2023-03-05T10:10:09.127Z,7.80
2023-03-05T10:12:52.578Z,8.20
2023-03-05T10:15:40.796Z,7.30
2023-03-05T10:18:23.205Z,7.60
2023-03-05T10:21:18.292Z,7.80
2023-03-05T10:23:49.802Z,7.60
2023-03-05T10:26:41.523Z,8.10
2023-03-05T10:29:33.240Z,7.60
2023-03-05T10:32:31.269Z,7.70
2023-03-05T10:34:57.963Z,7.80
2023-03-05T10:37:52.410Z,7.60
2023-03-05T10:40:29.471Z,7.50
2023-03-05T10:43:31.923Z,7.60
2023-03-05T10:46:01.611Z,7.70
2023-03-05T10:48:44.359Z,7.60
2023-03-05T10:51:26.370Z,8.40
2023-03-05T10:53:56.191Z,8.60
2023-03-05T10:56:25.635Z,8.40
2023-03-05T10:58:52.985Z,8.30
2023-03-05T11:01:25.084Z,8.10
2023-03-05T11:03:59.318Z,8.00
2023-03-05T11:06:41.380Z,9.60
2023-03-05T11:09:32.240Z,9.30
2023-03-05T11:12:14.470Z,9.20
2023-03-05T11:15:03.144Z,8.50
2023-03-05T11:17:37.528Z,9.40
2023-03-05T11:20:29.162Z,9.30
2023-03-05T11:23:17.112Z,9.60
2023-03-05T11:26:18.547Z,8.70
2023-03-05T11:28:54.045Z,8.50
2023-03-05T11:31:24.402Z,8.30
2023-03-05T11:34:02.389Z,8.80
2023-03-05T11:36:37.382Z,9.20
2023-03-05T11:39:09.790Z,10.00
2023-03-05T11:41:56.342Z,10.00
2023-03-05T11:44:27.971Z,9.80
2023-03-05T11:46:59.233Z,9.60
2023-03-05T11:49:28.994Z,9.50
2023-03-05T11:52:18.483Z,10.50
2023-03-05T11:55:07.184Z,9.70
2023-03-05T11:57:46.384Z,11.00
2023-03-05T12:00:21.315Z,10.80
2023-03-05T12:02:54.586Z,10.60
2023-03-05T12:05:21.918Z,10.30
2023-03-05T12:07:52.823Z,11.10
2023-03-05T12:10:25.695Z,9.40
2023-03-05T12:13:19.345Z,9.90
2023-03-05T12:15:57.594Z,9.50
2023-03-05T12:18:50.077Z,10.50
2023-03-05T12:21:37.082Z,10.60
2023-03-05T12:24:26.672Z,10.40
2023-03-05T12:27:03.899Z,10.50
2023-03-05T12:29:33.413Z,10.90
2023-03-05T12:32:01.721Z,11.00
2023-03-05T12:34:41.074Z,11.60
2023-03-05T12:37:13.814Z,12.20
2023-03-05T12:39:40.492Z,12.20
2023-03-05T12:42:30.558Z,11.60
2023-03-05T12:45:16.197Z,10.90
2023-03-05T12:47:47.601Z,10.70
2023-03-05T12:50:29.674Z,11.20
2023-03-05T12:52:57.647Z,11.00
2023-03-05T12:55:33.470Z,11.70
2023-03-05T12:58:04.073Z,11.90
2023-03-05T13:00:40.433Z,11.50
2023-03-05T13:03:12.308Z,11.60
2023-03-05T13:05:47.339Z,11.80
2023-03-05T13:08:24.815Z,11.60
2023-03-05T13:10:57.727Z,11.70
2023-03-05T13:13:26.544Z,11.70
2023-03-05T13:15:53.526Z,11.60
2023-03-05T13:18:23.657Z,10.80
2023-03-05T13:21:06.419Z,11.50
2023-03-05T13:23:34.951Z,11.50
2023-03-05T13:26:12.353Z,12.70
2023-03-05T13:28:40.984Z,12.40
2023-03-05T13:31:22.566Z,13.00
2023-03-05T13:33:56.415Z,11.90
2023-03-05T13:36:26.944Z,12.60
2023-03-05T13:38:54.122Z,12.60
2023-03-05T13:41:24.256Z,13.30
2023-03-05T13:43:52.474Z,12.70
2023-03-05T13:46:35.443Z,13.30
2023-03-05T13:49:26.087Z,12.70
2023-03-05T13:51:55.911Z,12.30
2023-03-05T13:54:24.765Z,12.20
2023-03-05T13:57:04.583Z,11.70
2023-03-05T13:59:33.982Z,11.20
2023-03-05T14:02:04.463Z,11.90
2023-03-05T14:04:41.116Z,12.20
2023-03-05T14:07:31.405Z,12.30
2023-03-05T14:09:59.787Z,11.70
2023-03-05T14:12:32.752Z,12.00
2023-03-05T14:14:59.945Z,11.80
2023-03-05T14:17:41.802Z,11.50
2023-03-05T14:20:11.572Z,12.50
2023-03-05T14:22:44.946Z,12.60
2023-03-05T14:25:39.121Z,12.40
2023-03-05T14:28:20.506Z,11.80
2023-03-05T14:30:53.963Z,12.10
2023-03-05T14:33:27.198Z,11.80
2023-03-05T14:35:55.737Z,12.00
2023-03-05T14:38:26.466Z,12.10
2023-03-05T14:40:53.260Z,12.20
2023-03-05T14:43:20.173Z,12.20
2023-03-05T14:45:47.949Z,12.40
2023-03-05T14:48:18.708Z,12.20
2023-03-05T14:50:51.728Z,12.40
2023-03-05T14:53:23.765Z,11.60
2023-03-05T14:55:53.701Z,12.50
2023-03-05T14:58:22.707Z,12.80
2023-03-05T15:00:51.233Z,11.80
2023-03-05T15:03:20.159Z,12.00
2023-03-05T15:05:49.550Z,11.60
2023-03-05T15:08:25.843Z,12.10
2023-03-05T15:10:52.965Z,11.60
2023-03-05T15:13:20.290Z,11.90
2023-03-05T15:15:49.550Z,11.50
2023-03-05T15:18:19.497Z,10.80
2023-03-05T15:20:48.805Z,11.20
2023-03-05T15:23:16.112Z,11.40
2023-03-05T15:25:43.857Z,10.90
2023-03-05T15:28:10.606Z,11.20
2023-03-05T15:30:40.476Z,12.40
2023-03-05T15:33:10.963Z,12.80
2023-03-05T15:35:38.085Z,11.50
2023-03-05T15:38:04.827Z,12.30
2023-03-05T15:40:32.208Z,12.30
2023-03-05T15:43:00.129Z,11.00
2023-03-05T15:45:27.776Z,10.90
2023-03-05T15:47:54.676Z,10.60
2023-03-05T15:50:22.300Z,11.20
2023-03-05T15:52:49.640Z,11.10
2023-03-05T15:55:18.317Z,11.20
2023-03-05T15:57:48.656Z,11.00
2023-03-05T16:00:17.781Z,11.30
2023-03-05T16:02:44.571Z,11.20
2023-03-05T16:05:11.336Z,11.50
2023-03-05T16:07:41.554Z,11.50
2023-03-05T16:10:13.540Z,12.00
2023-03-05T16:12:42.840Z,11.60
2023-03-05T16:15:13.513Z,11.20
2023-03-05T16:17:43.092Z,11.30
2023-03-05T16:20:11.368Z,11.30
2023-03-05T16:22:38.267Z,11.40
2023-03-05T16:25:05.624Z,11.40
2023-03-05T16:27:32.417Z,11.60
2023-03-05T16:29:59.231Z,11.30
2023-03-05T16:32:26.542Z,12.10
2023-03-05T16:34:53.321Z,11.90
2023-03-05T16:37:22.876Z,11.80
2023-03-05T16:39:50.336Z,12.30
2023-03-05T16:42:17.108Z,12.90
2023-03-05T16:44:44.347Z,12.90
2023-03-05T16:47:14.856Z,11.80
2023-03-05T16:49:41.573Z,11.90
2023-03-05T16:52:19.714Z,11.00
2023-03-05T16:54:48.064Z,11.60
2023-03-05T16:57:15.505Z,11.20
2023-03-05T16:59:43.562Z,11.20
2023-03-05T17:02:13.217Z,11.40
2023-03-05T17:04:41.607Z,11.40
2023-03-05T17:07:08.652Z,11.60
2023-03-05T17:09:35.943Z,11.20
2023-03-05T17:12:02.696Z,10.00
2023-03-05T17:14:29.467Z,8.00
2023-03-05T17:16:56.213Z,9.20
2023-03-05T17:19:23.185Z,10.40
2023-03-05T17:21:52.132Z,11.30
2023-03-05T17:24:22.298Z,10.70
2023-03-05T17:26:50.101Z,9.70
2023-03-05T17:29:18.944Z,8.20
2023-03-05T17:31:46.744Z,7.90
2023-03-05T17:34:14.387Z,7.50
2023-03-05T17:36:41.181Z,7.40
2023-03-05T17:39:08.767Z,9.00
2023-03-05T17:41:36.119Z,11.20
2023-03-05T17:44:03.917Z,11.50
2023-03-05T17:46:30.752Z,12.10
2023-03-05T17:48:57.468Z,12.30
2023-03-05T17:51:24.127Z,11.90
2023-03-05T17:53:50.867Z,12.40
2023-03-05T17:56:20.328Z,12.60
2023-03-05T17:58:47.241Z,12.60
2023-03-05T18:01:26.635Z,13.00
2023-03-05T18:03:53.682Z,13.30
2023-03-05T18:06:20.455Z,13.40
2023-03-05T18:08:47.483Z,13.30
2023-03-05T18:11:14.730Z,13.20
2023-03-05T18:13:42.774Z,13.00
2023-03-05T18:16:10.635Z,13.00
2023-03-05T18:18:37.494Z,12.90
2023-03-05T18:21:04.246Z,12.50
2023-03-05T18:23:30.997Z,12.10
2023-03-05T18:25:57.716Z,12.10
2023-03-05T18:28:25.870Z,12.10
2023-03-05T18:30:53.219Z,12.40
2023-03-05T18:33:23.114Z,12.10
2023-03-05T18:35:52.340Z,11.80
2023-03-05T18:38:24.411Z,11.50
2023-03-05T18:40:52.965Z,10.00
2023-03-05T18:43:21.185Z,9.30
2023-03-05T18:45:53.443Z,9.30
2023-03-05T18:48:21.040Z,9.10
2023-03-05T18:50:52.474Z,9.00
2023-03-05T18:53:20.837Z,9.10
2023-03-05T18:55:48.380Z,9.30
2023-03-05T18:58:17.396Z,9.20
2023-03-05T19:00:47.699Z,9.10
2023-03-05T19:03:15.378Z,9.10
2023-03-05T19:05:42.451Z,9.10
2023-03-05T19:08:09.346Z,8.90
2023-03-05T19:10:36.222Z,8.60
2023-03-05T19:13:39.525Z,8.70
2023-03-05T19:16:14.632Z,9.10
2023-03-05T19:18:57.227Z,9.30
2023-03-05T19:21:24.800Z,8.90
2023-03-05T19:23:51.479Z,8.90
2023-03-05T19:26:18.325Z,8.90
2023-03-05T19:28:45.164Z,8.50
2023-03-05T19:31:14.215Z,8.40
2023-03-05T19:33:41.607Z,8.40
2023-03-05T19:36:10.805Z,8.40
2023-03-05T19:38:38.546Z,8.30
2023-03-05T19:41:05.854Z,8.10
2023-03-05T19:43:32.858Z,8.10
2023-03-05T19:46:04.504Z,8.30
2023-03-05T19:48:32.010Z,8.30
2023-03-05T19:50:58.961Z,8.10
2023-03-05T19:53:27.163Z,8.40
2023-03-05T19:55:53.945Z,8.50
2023-03-05T19:58:20.852Z,8.50
2023-03-05T20:00:47.539Z,8.50
2023-03-05T20:03:14.288Z,8.20
2023-03-05T20:05:41.958Z,8.20
2023-03-05T20:08:08.697Z,8.30
2023-03-05T20:10:35.368Z,8.50
2023-03-05T20:13:02.439Z,8.30
2023-03-05T20:15:29.684Z,8.40
2023-03-05T20:17:57.716Z,8.30
2023-03-05T20:20:25.114Z,8.30
2023-03-05T20:22:51.796Z,9.00
2023-03-05T20:25:24.686Z,9.10
2023-03-05T20:27:52.486Z,9.50
2023-03-05T20:30:19.403Z,9.40
2023-03-05T20:32:46.646Z,9.20
2023-03-05T20:35:18.103Z,8.30
2023-03-05T20:37:51.897Z,8.60
2023-03-05T20:40:18.648Z,9.00
2023-03-05T20:42:45.598Z,8.60
2023-03-05T20:45:12.615Z,9.00
2023-03-05T20:47:45.890Z,9.20
2023-03-05T20:50:14.463Z,9.10
2023-03-05T20:52:41.241Z,9.10
2023-03-05T20:55:08.896Z,9.10
2023-03-05T20:57:35.583Z,9.10
2023-03-05T21:00:04.036Z,9.20
2023-03-05T21:02:34.038Z,9.20
2023-03-05T21:05:01.737Z,9.30
2023-03-05T21:07:29.667Z,9.50
2023-03-05T21:09:56.532Z,9.80
2023-03-05T21:12:23.183Z,10.70
2023-03-05T21:14:49.944Z,10.70
2023-03-05T21:17:17.927Z,11.20
2023-03-05T21:19:44.603Z,7.80
2023-03-05T21:22:11.387Z,6.40
2023-03-05T21:24:53.860Z,5.90
2023-03-05T21:27:20.689Z,5.50
2023-03-05T21:29:47.441Z,5.60
2023-03-05T21:32:14.947Z,5.60
2023-03-05T21:34:43.312Z,5.60
2023-03-05T21:37:10.143Z,5.40
2023-03-05T21:39:37.164Z,5.40
2023-03-05T21:42:05.181Z,5.30
2023-03-05T21:44:32.005Z,5.20
2023-03-05T21:46:58.923Z,5.10
2023-03-05T21:49:26.957Z,5.10
2023-03-05T21:52:08.930Z,5.00
2023-03-05T21:54:37.150Z,4.90
2023-03-05T21:57:04.059Z,4.80
2023-03-05T21:59:30.858Z,4.70
2023-03-05T22:01:57.981Z,4.80
2023-03-05T22:04:24.943Z,4.60
2023-03-05T22:06:51.796Z,4.50
2023-03-05T22:09:18.607Z,4.50
2023-03-05T22:11:45.562Z,4.40
2023-03-05T22:14:12.335Z,4.40
2023-03-05T22:16:39.137Z,4.40
2023-03-05T22:19:05.894Z,4.40
2023-03-05T22:21:32.586Z,4.60
2023-03-05T22:23:59.427Z,4.60
2023-03-05T22:26:32.796Z,4.50
2023-03-05T22:28:59.580Z,4.60
2023-03-05T22:31:27.669Z,4.40
2023-03-05T22:33:57.094Z,4.60
2023-03-05T22:36:24.392Z,4.50
2023-03-05T22:38:51.265Z,4.40
2023-03-05T22:41:19.868Z,4.40
2023-03-05T22:43:47.771Z,4.30
2023-03-05T22:46:19.148Z,4.30
2023-03-05T22:48:46.867Z,4.20
2023-03-05T22:51:14.619Z,4.20
2023-03-05T22:53:41.590Z,4.10
2023-03-05T22:56:10.583Z,4.20
2023-03-05T22:58:38.201Z,4.10
2023-03-05T23:01:22.468Z,4.10
2023-03-05T23:03:54.843Z,4.00
2023-03-05T23:06:21.675Z,3.90
2023-03-05T23:08:48.309Z,3.80
2023-03-05T23:11:15.114Z,3.80
2023-03-05T23:13:41.979Z,3.80
2023-03-05T23:16:09.778Z,3.80
2023-03-05T23:18:36.847Z,3.70
2023-03-05T23:21:03.848Z,3.60
2023-03-05T23:23:30.606Z,3.60
2023-03-05T23:25:57.282Z,3.60
2023-03-05T23:28:23.961Z,3.50
2023-03-05T23:30:50.741Z,3.60
2023-03-05T23:33:20.825Z,3.50
2023-03-05T23:35:56.325Z,3.50
2023-03-05T23:38:24.006Z,3.50
2023-03-05T23:40:54.037Z,3.30
2023-03-05T23:43:22.590Z,3.30
2023-03-05T23:45:50.242Z,3.20
2023-03-05T23:48:17.514Z,3.20
2023-03-05T23:50:50.385Z,3.30
2023-03-05T23:53:21.296Z,3.30
2023-03-05T23:55:48.723Z,3.20
2023-03-05T23:58:16.073Z,3.20
